Time;durP1;ratioP1;P1;durP2;ratioP2;P2;SDS_P1;SDS_P2;PMS_P1;PMS_P2;Temp;Humidity;BMP_temperature;BMP_pressure;BME280_temperature;BME280_humidity;BME280_pressure;Samples;Min_cycle;Max_cycle;Signal;HPM_P1;HPM_P2
2022/04/02 00:03:41;;;;;;;1.40;1.30;;;;;;;;;;759518;78;26670;-71
2022/04/02 00:04:45;;;;;;;1.52;1.37;;;;;;;;;;759548;78;26254;-71
2022/04/02 00:05:48;;;;;;;2.25;1.30;;;;;;;;;;759255;78;26257;-71
2022/04/02 00:06:53;;;;;;;1.45;1.20;;;;;;;;;;759315;78;26299;-71
2022/04/02 00:07:57;;;;;;;1.25;1.15;;;;;;;;;;759283;78;26316;-71
2022/04/02 00:08:59;;;;;;;1.90;1.25;;;;;;;;;;759234;78;26710;-71
2022/04/02 00:14:00;;;;;;;1.72;1.40;;;;;;;;;;764369;77;26209;-70
2022/04/02 00:15:04;;;;;;;1.00;1.00;;;;;;;;;;759764;78;26783;-71
2022/04/02 00:16:07;;;;;;;1.20;1.20;;;;;;;;;;761676;77;26335;-70
2022/04/02 00:17:11;;;;;;;1.05;1.05;;;;;;;;;;763655;77;26741;-70
2022/04/02 00:18:13;;;;;;;0.90;0.90;;;;;;;;;;763629;77;26248;-70
2022/04/02 00:19:17;;;;;;;1.00;1.00;;;;;;;;;;763686;77;26231;-70
2022/04/02 00:23:49;;;;;;;0.90;0.90;;;;;;;;;;770540;77;26259;-71
2022/04/02 00:24:53;;;;;;;0.98;0.98;;;;;;;;;;770447;77;26240;-71
2022/04/02 00:25:56;;;;;;;0.90;0.90;;;;;;;;;;770399;77;26306;-70
2022/04/02 00:26:59;;;;;;;1.00;1.00;;;;;;;;;;770353;77;26295;-70
2022/04/02 00:28:02;;;;;;;1.00;1.00;;;;;;;;;;770421;77;26309;-70
2022/04/02 00:29:07;;;;;;;0.93;0.90;;;;;;;;;;770378;77;26272;-70
2022/04/02 00:33:51;;;;;;;0.98;0.90;;;;;;;;;;733262;81;26261;-70
2022/04/02 00:34:54;;;;;;;1.17;1.07;;;;;;;;;;733294;81;26269;-69
2022/04/02 00:35:58;;;;;;;0.98;0.98;;;;;;;;;;733426;81;26725;-70
2022/04/02 00:37:03;;;;;;;1.00;1.00;;;;;;;;;;733360;81;26745;-71
2022/04/02 00:38:10;;;;;;;0.90;0.90;;;;;;;;;;733426;81;26265;-71
2022/04/02 00:39:15;;;;;;;0.90;0.90;;;;;;;;;;733469;81;26262;-71
2022/04/02 00:44:00;;;;;;;0.90;0.90;;;;;;;;;;775412;76;26237;-71
2022/04/02 00:45:03;;;;;;;1.00;1.00;;;;;;;;;;762103;78;26342;-70
2022/04/02 00:46:08;;;;;;;0.80;0.80;;;;;;;;;;780545;76;26754;-71
2022/04/02 00:47:11;;;;;;;1.15;1.05;;;;;;;;;;789325;75;26286;-70
2022/04/02 00:48:15;;;;;;;1.65;1.10;;;;;;;;;;775305;76;26782;-71
2022/04/02 00:49:18;;;;;;;1.67;1.10;;;;;;;;;;780577;76;26250;-70
2022/04/02 00:52:49;;;;;;;0.85;0.85;;;;;;;;;;789861;74;26255;-70
2022/04/02 00:53:52;;;;;;;1.00;1.00;;;;;;;;;;789826;75;26238;-69
2022/04/02 00:54:55;;;;;;;1.20;1.10;;;;;;;;;;789864;75;26696;-70
2022/04/02 00:55:59;;;;;;;1.10;1.00;;;;;;;;;;789923;75;26236;-70
2022/04/02 00:57:03;;;;;;;1.10;0.90;;;;;;;;;;789906;75;26246;-71
2022/04/02 00:58:08;;;;;;;0.90;0.90;;;;;;;;;;789849;75;26688;-70
2022/04/02 00:59:12;;;;;;;0.90;0.90;;;;;;;;;;789843;75;26239;-70
2022/04/02 01:02:30;;;;;;;0.98;0.95;;;;;;;;;;790575;75;26180;-70
2022/04/02 01:03:35;;;;;;;1.15;1.02;;;;;;;;;;802925;74;26224;-71
2022/04/02 01:04:39;;;;;;;1.07;1.02;;;;;;;;;;801840;74;26229;-70
2022/04/02 01:05:43;;;;;;;1.00;1.00;;;;;;;;;;801851;74;26238;-70
2022/04/02 01:06:46;;;;;;;0.93;0.90;;;;;;;;;;801822;74;26227;-70
2022/04/02 01:07:51;;;;;;;1.10;1.10;;;;;;;;;;801868;74;26699;-69
2022/04/02 01:08:54;;;;;;;1.25;1.20;;;;;;;;;;774577;76;26238;-71
2022/04/02 01:13:50;;;;;;;0.95;0.95;;;;;;;;;;785109;75;26178;-70
2022/04/02 01:14:55;;;;;;;1.00;0.90;;;;;;;;;;785028;75;26314;-70
2022/04/02 01:15:59;;;;;;;1.70;1.07;;;;;;;;;;785119;75;26306;-71
2022/04/02 01:17:09;;;;;;;1.90;1.30;;;;;;;;;;785047;75;26228;-69
2022/04/02 01:18:15;;;;;;;1.30;1.20;;;;;;;;;;784975;75;26677;-69
2022/04/02 01:21:08;;;;;;;1.20;1.10;;;;;;;;;;785379;75;26173;-69
2022/04/02 01:22:14;;;;;;;2.60;1.00;;;;;;;;;;792188;75;26226;-71
2022/04/02 01:23:19;;;;;;;1.27;1.17;;;;;;;;;;776677;76;26296;-70
2022/04/02 01:24:22;;;;;;;1.40;1.30;;;;;;;;;;780776;76;26245;-69
2022/04/02 01:25:31;;;;;;;1.10;1.10;;;;;;;;;;792285;75;26686;-72
2022/04/02 01:26:30;;;;;;;1.12;1.12;;;;;;;;;;792027;75;26255;-73
2022/04/02 01:27:39;;;;;;;1.67;1.00;;;;;;;;;;777995;76;26239;-70
2022/04/02 01:28:42;;;;;;;1.20;1.10;;;;;;;;;;782030;76;26251;-71
2022/04/02 01:32:00;;;;;;;0.80;0.80;;;;;;;;;;780975;76;26586;-70
2022/04/02 01:33:03;;;;;;;0.90;0.90;;;;;;;;;;785169;75;26683;-72
2022/04/02 01:34:07;;;;;;;1.00;1.00;;;;;;;;;;785690;75;26270;-71
2022/04/02 01:35:12;;;;;;;1.00;1.00;;;;;;;;;;785217;75;26684;-70
2022/04/02 01:36:14;;;;;;;1.10;1.00;;;;;;;;;;784942;75;26209;-71
2022/04/02 01:37:17;;;;;;;2.27;1.00;;;;;;;;;;781500;75;26211;-71
2022/04/02 01:38:22;;;;;;;1.00;1.00;;;;;;;;;;780003;76;26343;-69
2022/04/02 01:41:49;;;;;;;2.58;1.42;;;;;;;;;;783181;75;26702;-70
2022/04/02 01:42:53;;;;;;;1.30;1.20;;;;;;;;;;791704;75;26686;-69
2022/04/02 01:43:56;;;;;;;1.20;1.10;;;;;;;;;;791662;75;26337;-71
2022/04/02 01:45:03;;;;;;;1.30;1.20;;;;;;;;;;791731;75;26748;-69
2022/04/02 01:46:07;;;;;;;2.50;1.07;;;;;;;;;;791694;75;26306;-70
2022/04/02 01:47:11;;;;;;;1.15;1.05;;;;;;;;;;791740;75;26241;-70
2022/04/02 01:48:15;;;;;;;1.05;1.05;;;;;;;;;;791684;75;26307;-70
2022/04/02 01:53:13;;;;;;;0.90;0.90;;;;;;;;;;757337;77;26167;-70
2022/04/02 01:54:20;;;;;;;1.62;1.20;;;;;;;;;;766890;76;26701;-70
2022/04/02 01:55:22;;;;;;;1.00;1.00;;;;;;;;;;765394;76;26771;-70
2022/04/02 01:56:25;;;;;;;1.00;1.00;;;;;;;;;;764612;77;26246;-70
2022/04/02 01:57:35;;;;;;;1.20;1.10;;;;;;;;;;764903;77;26252;-70
2022/04/02 01:58:40;;;;;;;1.15;1.05;;;;;;;;;;765130;77;26303;-69
2022/04/02 02:03:22;;;;;;;1.37;1.17;;;;;;;;;;775287;76;26205;-71
2022/04/02 02:04:26;;;;;;;1.02;1.00;;;;;;;;;;761391;77;26702;-70
2022/04/02 02:05:29;;;;;;;1.12;1.02;;;;;;;;;;772519;76;26296;-70
2022/04/02 02:06:38;;;;;;;1.25;1.10;;;;;;;;;;772323;77;26241;-70
2022/04/02 02:07:59;;;;;;;1.27;1.17;;;;;;;;;;772321;77;26245;-71
2022/04/02 02:12:30;;;;;;;1.25;1.15;;;;;;;;;;784113;75;26676;-70
2022/04/02 02:13:35;;;;;;;1.10;1.10;;;;;;;;;;781520;76;26295;-70
2022/04/02 02:14:38;;;;;;;0.90;0.90;;;;;;;;;;782217;76;26293;-70
2022/04/02 02:15:40;;;;;;;1.10;1.00;;;;;;;;;;782404;76;26240;-69
2022/04/02 02:16:43;;;;;;;1.07;1.07;;;;;;;;;;782083;76;26323;-69
2022/04/02 02:17:51;;;;;;;0.90;0.90;;;;;;;;;;782153;76;26236;-69
2022/04/02 02:23:11;;;;;;;0.88;0.88;;;;;;;;;;782234;76;26180;-70
2022/04/02 02:24:16;;;;;;;1.27;1.10;;;;;;;;;;782279;76;26298;-70
2022/04/02 02:25:25;;;;;;;3.25;1.20;;;;;;;;;;782210;76;26251;-70
2022/04/02 02:26:34;;;;;;;1.20;1.10;;;;;;;;;;777360;76;26314;-70
2022/04/02 02:27:40;;;;;;;1.77;1.00;;;;;;;;;;782417;76;26252;-68
2022/04/02 02:35:50;;;;;;;1.35;1.00;;;;;;;;;;772367;77;26798;-69
2022/04/02 02:36:53;;;;;;;1.27;1.20;;;;;;;;;;772602;77;26235;-70
2022/04/02 02:38:05;;;;;;;1.00;1.00;;;;;;;;;;772944;77;26330;-69
2022/04/02 02:42:57;;;;;;;1.17;1.10;;;;;;;;;;763270;78;26682;-68
2022/04/02 02:44:03;;;;;;;0.95;0.95;;;;;;;;;;763166;78;26623;-70
2022/04/02 02:45:06;;;;;;;0.90;0.90;;;;;;;;;;763175;78;26711;-69
2022/04/02 02:46:14;;;;;;;1.45;1.30;;;;;;;;;;763163;77;26258;-69
2022/04/02 02:47:15;;;;;;;1.70;1.20;;;;;;;;;;755818;78;26323;-70
2022/04/02 02:48:22;;;;;;;0.90;0.90;;;;;;;;;;763250;78;26254;-70
2022/04/02 02:51:41;;;;;;;1.30;1.05;;;;;;;;;;770196;77;26288;-75
2022/04/02 02:52:45;;;;;;;1.02;1.02;;;;;;;;;;770058;77;26232;-70
2022/04/02 02:53:52;;;;;;;1.10;1.10;;;;;;;;;;770601;77;26241;-70
2022/04/02 02:54:55;;;;;;;1.27;1.15;;;;;;;;;;769670;77;26231;-72
2022/04/02 02:56:08;;;;;;;2.37;1.20;;;;;;;;;;769043;77;26249;-70
2022/04/02 02:57:15;;;;;;;1.45;1.30;;;;;;;;;;769157;77;26735;-69
2022/04/02 02:58:21;;;;;;;1.35;1.15;;;;;;;;;;769134;77;26241;-71
2022/04/02 03:01:14;;;;;;;1.42;1.20;;;;;;;;;;796127;74;26591;-71
2022/04/02 03:02:20;;;;;;;0.98;0.98;;;;;;;;;;796006;74;26227;-70
2022/04/02 03:03:23;;;;;;;3.35;1.20;;;;;;;;;;799662;74;26284;-69
2022/04/02 03:04:27;;;;;;;1.15;1.05;;;;;;;;;;796107;74;26297;-69
2022/04/02 03:05:31;;;;;;;0.90;0.90;;;;;;;;;;793681;74;26691;-70
2022/04/02 03:06:35;;;;;;;1.37;1.12;;;;;;;;;;793702;75;26685;-71
2022/04/02 03:07:48;;;;;;;0.98;0.98;;;;;;;;;;794096;75;26231;-69
2022/04/02 03:11:13;;;;;;;0.93;0.93;;;;;;;;;;793915;75;26128;-70
2022/04/02 03:12:16;;;;;;;2.25;1.00;;;;;;;;;;760838;78;26718;-70
2022/04/02 03:13:22;;;;;;;2.47;1.00;;;;;;;;;;760867;78;26292;-70
2022/04/02 03:14:26;;;;;;;1.50;1.20;;;;;;;;;;760892;78;26409;-70
2022/04/02 03:15:29;;;;;;;1.17;1.12;;;;;;;;;;760839;78;26318;-69
2022/04/02 03:16:42;;;;;;;0.95;0.95;;;;;;;;;;760879;78;26336;-69
2022/04/02 03:17:47;;;;;;;1.10;1.10;;;;;;;;;;760926;78;26304;-70
2022/04/02 03:24:34;;;;;;;1.00;1.00;;;;;;;;;;776116;76;26163;-69
2022/04/02 03:25:40;;;;;;;1.20;1.20;;;;;;;;;;776548;76;26246;-69
2022/04/02 03:26:43;;;;;;;1.00;1.00;;;;;;;;;;776530;76;26254;-68
2022/04/02 03:27:48;;;;;;;1.12;1.00;;;;;;;;;;775949;76;26722;-69
2022/04/02 03:31:14;;;;;;;0.80;0.80;;;;;;;;;;776152;76;26277;-68
2022/04/02 03:32:18;;;;;;;1.25;1.00;;;;;;;;;;781216;76;26220;-70
2022/04/02 03:33:24;;;;;;;1.52;1.00;;;;;;;;;;781059;76;26254;-69
2022/04/02 03:34:27;;;;;;;1.45;1.00;;;;;;;;;;781202;76;26731;-69
2022/04/02 03:35:32;;;;;;;1.00;1.00;;;;;;;;;;781239;76;26251;-69
2022/04/02 03:36:35;;;;;;;0.90;0.90;;;;;;;;;;781268;76;26308;-70
2022/04/02 03:37:38;;;;;;;1.00;1.00;;;;;;;;;;781244;76;26748;-69
2022/04/02 03:42:44;;;;;;;0.90;0.90;;;;;;;;;;750158;79;26420;-69
2022/04/02 03:43:43;;;;;;;1.25;1.15;;;;;;;;;;750866;78;26330;-69
2022/04/02 03:44:48;;;;;;;0.90;0.90;;;;;;;;;;748194;78;26265;-69
2022/04/02 03:45:50;;;;;;;0.90;0.90;;;;;;;;;;748526;79;26817;-69
2022/04/02 03:47:08;;;;;;;0.90;0.90;;;;;;;;;;747962;79;26261;-69
2022/04/02 03:48:15;;;;;;;1.10;1.00;;;;;;;;;;751020;77;26315;-70
2022/04/02 03:51:35;;;;;;;5.28;2.85;;;;;;;;;;749502;79;26178;-70
2022/04/02 03:52:38;;;;;;;1.47;1.37;;;;;;;;;;765919;77;26376;-69
2022/04/02 03:53:42;;;;;;;1.15;1.10;;;;;;;;;;763776;77;26322;-69
2022/04/02 03:54:48;;;;;;;1.45;1.12;;;;;;;;;;763946;77;26301;-68
2022/04/02 03:55:52;;;;;;;1.12;1.00;;;;;;;;;;763762;77;26255;-69
2022/04/02 03:56:55;;;;;;;1.15;1.10;;;;;;;;;;763707;77;26267;-69
2022/04/02 03:57:59;;;;;;;1.82;1.32;;;;;;;;;;763676;77;26360;-70
2022/04/02 04:02:34;;;;;;;1.55;1.35;;;;;;;;;;762844;78;26213;-70
2022/04/02 04:03:39;;;;;;;1.60;1.00;;;;;;;;;;762663;78;26256;-69
2022/04/02 04:04:43;;;;;;;1.20;1.10;;;;;;;;;;762628;78;26253;-69
2022/04/02 04:05:50;;;;;;;2.52;1.00;;;;;;;;;;748339;79;26310;-68
2022/04/02 04:06:53;;;;;;;1.90;1.20;;;;;;;;;;748337;79;26311;-69
2022/04/02 04:07:56;;;;;;;1.22;0.90;;;;;;;;;;742243;80;26272;-68
2022/04/02 04:12:53;;;;;;;0.98;0.90;;;;;;;;;;738326;80;26354;-72
2022/04/02 04:14:03;;;;;;;1.00;1.00;;;;;;;;;;738259;80;26269;-72
2022/04/02 04:15:06;;;;;;;1.20;1.10;;;;;;;;;;738183;80;26277;-71
2022/04/02 04:16:10;;;;;;;1.20;1.10;;;;;;;;;;738863;80;26270;-72
2022/04/02 04:17:14;;;;;;;1.10;1.00;;;;;;;;;;738878;80;26262;-71
2022/04/02 04:21:59;;;;;;;2.12;1.20;;;;;;;;;;776501;76;26250;-72
2022/04/02 04:23:03;;;;;;;1.17;1.17;;;;;;;;;;776485;76;26317;-71
2022/04/02 04:24:08;;;;;;;1.00;0.90;;;;;;;;;;777222;76;26245;-74
2022/04/02 04:25:14;;;;;;;0.88;0.88;;;;;;;;;;777051;76;26340;-72
2022/04/02 04:26:17;;;;;;;1.20;1.10;;;;;;;;;;776560;76;26255;-74
2022/04/02 04:27:20;;;;;;;1.00;1.00;;;;;;;;;;776716;76;26711;-71
2022/04/02 04:32:17;;;;;;;0.82;0.82;;;;;;;;;;775025;76;26289;-74
2022/04/02 04:33:20;;;;;;;1.37;1.27;;;;;;;;;;775249;76;26424;-71
2022/04/02 04:34:23;;;;;;;1.20;1.20;;;;;;;;;;775777;76;26308;-72
2022/04/02 04:35:28;;;;;;;0.98;0.95;;;;;;;;;;775073;76;26304;-71
2022/04/02 04:36:31;;;;;;;1.00;1.00;;;;;;;;;;775248;76;26696;-71
2022/04/02 04:37:35;;;;;;;1.95;1.10;;;;;;;;;;775883;76;26242;-71
2022/04/02 04:42:08;;;;;;;1.00;1.00;;;;;;;;;;781150;76;26655;-71
2022/04/02 04:43:11;;;;;;;1.00;1.00;;;;;;;;;;781028;76;26232;-70
2022/04/02 04:44:14;;;;;;;1.05;1.05;;;;;;;;;;781038;76;26301;-71
2022/04/02 04:45:18;;;;;;;1.02;0.95;;;;;;;;;;781027;76;26301;-71
2022/04/02 04:46:21;;;;;;;1.10;1.10;;;;;;;;;;781036;76;26231;-71
2022/04/02 04:47:24;;;;;;;1.27;1.00;;;;;;;;;;781037;76;26304;-72
2022/04/02 04:52:20;;;;;;;1.20;1.10;;;;;;;;;;758598;78;26236;-72
2022/04/02 04:53:23;;;;;;;1.37;0.93;;;;;;;;;;758427;78;26679;-70
2022/04/02 04:54:27;;;;;;;1.07;0.98;;;;;;;;;;758195;78;26243;-72
2022/04/02 04:55:30;;;;;;;1.00;1.00;;;;;;;;;;758716;78;26749;-71
2022/04/02 04:56:34;;;;;;;1.77;0.95;;;;;;;;;;758546;78;26249;-72
2022/04/02 04:57:36;;;;;;;1.30;0.85;;;;;;;;;;758587;78;26245;-71
2022/04/02 05:00:26;;;;;;;1.40;1.30;;;;;;;;;;775578;76;26218;-73
2022/04/02 05:01:29;;;;;;;1.35;1.25;;;;;;;;;;775468;76;26251;-71
2022/04/02 05:02:35;;;;;;;1.45;1.35;;;;;;;;;;760779;78;26266;-69
2022/04/02 05:03:39;;;;;;;1.10;1.10;;;;;;;;;;774626;76;26259;-72
2022/04/02 05:04:42;;;;;;;1.10;0.95;;;;;;;;;;776041;76;26255;-71
2022/04/02 05:05:47;;;;;;;0.90;0.90;;;;;;;;;;776222;76;26251;-71
2022/04/02 05:06:50;;;;;;;1.00;1.00;;;;;;;;;;776854;76;26298;-73
2022/04/02 05:11:47;;;;;;;1.05;1.05;;;;;;;;;;775675;76;26192;-71
2022/04/02 05:12:53;;;;;;;1.50;1.40;;;;;;;;;;775701;76;26280;-71
2022/04/02 05:13:56;;;;;;;1.30;1.20;;;;;;;;;;776211;76;26229;-71
2022/04/02 05:14:58;;;;;;;1.82;1.30;;;;;;;;;;776233;76;26234;-70
2022/04/02 05:16:01;;;;;;;1.40;1.30;;;;;;;;;;776468;76;26233;-73
2022/04/02 05:17:05;;;;;;;1.17;1.07;;;;;;;;;;776800;76;26287;-72
2022/04/02 05:22:02;;;;;;;1.45;1.27;;;;;;;;;;761866;78;26616;-71
2022/04/02 05:23:06;;;;;;;1.12;1.12;;;;;;;;;;761745;78;26334;-73
2022/04/02 05:24:09;;;;;;;1.35;1.20;;;;;;;;;;761713;78;26263;-70
2022/04/02 05:25:14;;;;;;;1.40;1.25;;;;;;;;;;762147;78;26267;-73
2022/04/02 05:26:19;;;;;;;1.65;1.55;;;;;;;;;;762144;78;26263;-72
2022/04/02 05:27:28;;;;;;;1.15;1.15;;;;;;;;;;761136;78;26680;-72
2022/04/02 05:31:16;;;;;;;1.98;1.80;;;;;;;;;;759805;78;26273;-71
2022/04/02 05:32:20;;;;;;;1.40;1.30;;;;;;;;;;759697;78;26268;-72
2022/04/02 05:33:22;;;;;;;1.57;1.47;;;;;;;;;;759589;78;26776;-71
2022/04/02 05:34:27;;;;;;;1.55;1.30;;;;;;;;;;759762;78;26259;-72
2022/04/02 05:35:31;;;;;;;1.87;1.20;;;;;;;;;;759090;78;26675;-71
2022/04/02 05:36:38;;;;;;;2.52;1.10;;;;;;;;;;759643;78;26263;-71
2022/04/02 05:41:19;;;;;;;1.67;1.17;;;;;;;;;;778529;76;26751;-70
2022/04/02 05:42:22;;;;;;;1.98;1.20;;;;;;;;;;778766;76;26679;-72
2022/04/02 05:43:25;;;;;;;2.15;1.30;;;;;;;;;;779043;76;26690;-71
2022/04/02 05:44:30;;;;;;;1.90;1.80;;;;;;;;;;779983;76;26246;-72
2022/04/02 05:45:34;;;;;;;1.60;1.50;;;;;;;;;;778959;76;26250;-72
2022/04/02 05:46:36;;;;;;;1.40;1.30;;;;;;;;;;775010;76;26319;-72
2022/04/02 05:51:10;;;;;;;1.90;1.17;;;;;;;;;;775842;76;26637;-73
2022/04/02 05:52:13;;;;;;;1.17;1.10;;;;;;;;;;775452;76;26320;-70
2022/04/02 05:53:17;;;;;;;1.40;1.30;;;;;;;;;;775780;76;26280;-72
2022/04/02 05:54:21;;;;;;;1.00;1.00;;;;;;;;;;775010;76;26679;-70
2022/04/02 05:55:24;;;;;;;1.15;1.15;;;;;;;;;;774919;76;26670;-70
2022/04/02 05:56:27;;;;;;;1.98;1.10;;;;;;;;;;775003;76;26651;-71
2022/04/02 06:01:24;;;;;;;1.30;1.20;;;;;;;;;;775114;76;26660;-73
2022/04/02 06:02:27;;;;;;;1.40;1.30;;;;;;;;;;774979;76;26738;-71
2022/04/02 06:03:30;;;;;;;1.92;1.50;;;;;;;;;;774934;76;26296;-70
2022/04/02 06:04:35;;;;;;;2.87;1.20;;;;;;;;;;774882;76;26737;-70
2022/04/02 06:05:38;;;;;;;1.22;1.10;;;;;;;;;;774769;76;26725;-72
2022/04/02 06:06:40;;;;;;;1.20;1.20;;;;;;;;;;774878;76;26241;-72
2022/04/02 06:11:13;;;;;;;1.85;1.00;;;;;;;;;;775130;76;26241;-70
2022/04/02 06:12:17;;;;;;;1.47;1.37;;;;;;;;;;775488;76;26766;-71
2022/04/02 06:13:20;;;;;;;3.20;1.45;;;;;;;;;;775073;76;26683;-71
2022/04/02 06:14:24;;;;;;;1.20;1.20;;;;;;;;;;776083;76;26683;-72
2022/04/02 06:15:28;;;;;;;1.55;1.42;;;;;;;;;;776184;76;26253;-72
2022/04/02 06:16:32;;;;;;;1.40;1.30;;;;;;;;;;776299;76;26327;-71
2022/04/02 06:22:59;;;;;;;2.33;1.95;;;;;;;;;;789838;75;26182;-71
2022/04/02 06:24:06;;;;;;;1.80;1.70;;;;;;;;;;790406;75;26225;-74
2022/04/02 06:25:07;;;;;;;3.52;1.52;;;;;;;;;;790520;75;26229;-73
2022/04/02 06:26:12;;;;;;;2.45;1.37;;;;;;;;;;789347;75;26237;-72
2022/04/02 06:27:15;;;;;;;2.05;1.50;;;;;;;;;;789252;75;26721;-71
2022/04/02 06:31:29;;;;;;;1.35;1.25;;;;;;;;;;808173;73;26155;-73
2022/04/02 06:32:36;;;;;;;1.50;1.40;;;;;;;;;;808102;73;26230;-72
2022/04/02 06:33:41;;;;;;;2.42;1.30;;;;;;;;;;808106;73;26292;-73
2022/04/02 06:34:44;;;;;;;1.15;1.12;;;;;;;;;;808061;73;26695;-74
2022/04/02 06:35:47;;;;;;;1.90;1.52;;;;;;;;;;808881;73;26741;-72
2022/04/02 06:36:50;;;;;;;1.30;1.20;;;;;;;;;;809855;73;26292;-74
2022/04/02 06:37:54;;;;;;;1.40;1.30;;;;;;;;;;808867;73;26226;-72
2022/04/02 06:38:57;;;;;;;2.05;1.40;;;;;;;;;;808142;73;26226;-72
2022/04/02 06:40:04;;;;;;;3.90;1.40;;;;;;;;;;808329;73;26222;-73
2022/04/02 06:41:07;;;;;;;2.35;1.60;;;;;;;;;;773895;76;26230;-73
2022/04/02 06:42:10;;;;;;;2.35;1.60;;;;;;;;;;808909;73;26226;-74
2022/04/02 06:43:14;;;;;;;1.67;1.25;;;;;;;;;;771313;76;26231;-74
2022/04/02 06:44:19;;;;;;;1.77;1.35;;;;;;;;;;808587;73;26230;-71
2022/04/02 06:45:22;;;;;;;1.30;1.20;;;;;;;;;;808126;73;26239;-72
2022/04/02 06:46:25;;;;;;;4.42;1.60;;;;;;;;;;808124;73;26684;-70
2022/04/02 06:49:50;;;;;;;1.70;1.60;;;;;;;;;;808669;73;26167;-72
2022/04/02 06:50:54;;;;;;;2.02;1.40;;;;;;;;;;791539;75;26740;-72
2022/04/02 06:51:57;;;;;;;1.45;1.35;;;;;;;;;;791200;75;26303;-71
2022/04/02 06:53:01;;;;;;;1.80;1.60;;;;;;;;;;791241;75;26721;-71
2022/04/02 06:54:07;;;;;;;1.40;1.30;;;;;;;;;;790985;75;26680;-71
2022/04/02 06:55:11;;;;;;;1.27;1.20;;;;;;;;;;791422;75;26237;-70
2022/04/02 06:56:14;;;;;;;2.52;1.92;;;;;;;;;;791572;75;26671;-72
2022/04/02 07:00:59;;;;;;;1.70;1.60;;;;;;;;;;779218;76;26234;-73
2022/04/02 07:02:03;;;;;;;1.60;1.60;;;;;;;;;;778744;76;26249;-75
2022/04/02 07:03:06;;;;;;;2.40;2.20;;;;;;;;;;779236;76;26695;-73
2022/04/02 07:04:11;;;;;;;1.80;1.70;;;;;;;;;;778738;76;26234;-74
2022/04/02 07:05:14;;;;;;;2.77;1.42;;;;;;;;;;778633;76;26288;-73
2022/04/02 07:06:18;;;;;;;1.45;1.35;;;;;;;;;;776872;76;26740;-72
2022/04/02 07:09:18;;;;;;;1.30;1.20;;;;;;;;;;736983;79;26231;-72
2022/04/02 07:10:21;;;;;;;2.17;1.50;;;;;;;;;;736391;80;26278;-72
2022/04/02 07:11:23;;;;;;;2.10;1.80;;;;;;;;;;739917;79;26278;-72
2022/04/02 07:12:26;;;;;;;1.82;1.70;;;;;;;;;;742176;80;26765;-75
2022/04/02 07:13:29;;;;;;;1.60;1.50;;;;;;;;;;742175;80;26270;-72
2022/04/02 07:14:34;;;;;;;4.22;1.40;;;;;;;;;;741792;79;26274;-72
2022/04/02 07:15:39;;;;;;;2.02;1.70;;;;;;;;;;742189;80;26719;-73
2022/04/02 07:16:43;;;;;;;1.50;1.40;;;;;;;;;;742235;80;26382;-73
2022/04/02 07:19:46;;;;;;;2.87;1.40;;;;;;;;;;737348;80;26288;-72
2022/04/02 07:20:57;;;;;;;1.60;1.50;;;;;;;;;;740640;79;26277;-72
2022/04/02 07:22:00;;;;;;;1.47;1.37;;;;;;;;;;739766;80;26266;-72
2022/04/02 07:23:05;;;;;;;1.80;1.70;;;;;;;;;;730913;81;26284;-73
2022/04/02 07:24:08;;;;;;;1.70;1.60;;;;;;;;;;713455;81;26317;-71
2022/04/02 07:25:13;;;;;;;1.65;1.55;;;;;;;;;;742183;80;26344;-73
2022/04/02 07:26:16;;;;;;;2.47;1.70;;;;;;;;;;741854;80;26270;-74
2022/04/02 07:30:48;;;;;;;3.15;2.20;;;;;;;;;;747858;79;26648;-74
2022/04/02 07:31:51;;;;;;;3.55;2.85;;;;;;;;;;742385;80;26320;-73
2022/04/02 07:32:55;;;;;;;2.80;2.25;;;;;;;;;;742811;79;26286;-72
2022/04/02 07:33:59;;;;;;;2.10;1.72;;;;;;;;;;746540;79;26752;-73
2022/04/02 07:35:01;;;;;;;2.08;1.98;;;;;;;;;;744456;80;26250;-73
2022/04/02 07:36:08;;;;;;;2.20;1.90;;;;;;;;;;743269;80;26778;-73
2022/04/02 07:41:08;;;;;;;2.37;1.92;;;;;;;;;;761184;78;26705;-73
2022/04/02 07:42:13;;;;;;;3.52;1.95;;;;;;;;;;763194;77;26252;-72
2022/04/02 07:43:19;;;;;;;4.47;1.55;;;;;;;;;;766910;77;26237;-73
2022/04/02 07:44:32;;;;;;;1.40;1.30;;;;;;;;;;766269;77;26765;-73
2022/04/02 07:45:40;;;;;;;3.70;1.47;;;;;;;;;;766881;77;26708;-72
2022/04/02 07:46:44;;;;;;;1.57;1.47;;;;;;;;;;766972;77;26236;-73
2022/04/02 07:49:49;;;;;;;2.05;1.45;;;;;;;;;;748521;79;26240;-71
2022/04/02 07:50:54;;;;;;;1.50;1.50;;;;;;;;;;748333;79;26263;-72
2022/04/02 07:51:57;;;;;;;1.40;1.30;;;;;;;;;;748418;79;26267;-71
2022/04/02 07:53:01;;;;;;;1.70;1.60;;;;;;;;;;748385;79;26770;-72
2022/04/02 07:54:04;;;;;;;1.60;1.50;;;;;;;;;;748313;79;26259;-73
2022/04/02 07:55:08;;;;;;;3.45;1.50;;;;;;;;;;748355;79;26685;-72
2022/04/02 07:56:12;;;;;;;1.57;1.47;;;;;;;;;;748392;79;26334;-72
2022/04/02 08:01:10;;;;;;;1.63;1.47;;;;;;;;;;774223;76;26509;-71
2022/04/02 08:03:34;;;;;;;2.60;1.50;;;;;;;;;;757925;78;26960;-73
2022/04/02 08:04:37;;;;;;;1.60;1.30;;;;;;;;;;775631;76;26919;-72
2022/04/02 08:05:41;;;;;;;2.50;1.23;;;;;;;;;;757361;78;26539;-72
2022/04/02 08:10:14;;;;;;;1.93;1.83;;;;;;;;;;763927;78;26249;-73
2022/04/02 08:11:18;;;;;;;4.67;2.17;;;;;;;;;;764127;78;26427;-71
2022/04/02 08:12:24;;;;;;;1.60;1.50;;;;;;;;;;764475;78;26952;-72
2022/04/02 08:13:28;;;;;;;1.40;1.30;;;;;;;;;;764484;78;26494;-71
2022/04/02 08:14:31;;;;;;;1.53;1.30;;;;;;;;;;764520;78;26587;-71
2022/04/02 08:15:34;;;;;;;2.83;1.30;;;;;;;;;;764327;78;26270;-73
2022/04/02 08:20:32;;;;;;;1.37;1.27;;;;;;;;;;763341;78;26480;-71
2022/04/02 08:21:35;;;;;;;2.80;1.50;;;;;;;;;;763280;78;26491;-72
2022/04/02 08:22:38;;;;;;;6.27;4.30;;;;;;;;;;763310;78;26629;-72
2022/04/02 08:23:41;;;;;;;2.87;2.57;;;;;;;;;;763246;78;26563;-72
2022/04/02 08:24:44;;;;;;;1.30;1.20;;;;;;;;;;763271;78;26607;-73
2022/04/02 08:25:50;;;;;;;2.97;1.60;;;;;;;;;;763293;78;26950;-72
2022/04/02 08:30:32;;;;;;;2.47;1.50;;;;;;;;;;777538;76;26470;-72
2022/04/02 08:31:41;;;;;;;1.83;1.50;;;;;;;;;;777695;76;26530;-73
2022/04/02 08:32:51;;;;;;;1.57;1.47;;;;;;;;;;777332;76;26425;-73
2022/04/02 08:34:06;;;;;;;2.37;1.47;;;;;;;;;;777120;76;26598;-76
2022/04/02 08:35:10;;;;;;;1.50;1.40;;;;;;;;;;775871;76;26934;-73
2022/04/02 08:36:22;;;;;;;3.00;1.60;;;;;;;;;;776092;76;26819;-72
2022/04/02 08:39:41;;;;;;;2.13;1.50;;;;;;;;;;748415;79;26459;-71
2022/04/02 08:40:52;;;;;;;1.70;1.20;;;;;;;;;;752509;76;26469;-74
2022/04/02 08:42:11;;;;;;;2.73;1.40;;;;;;;;;;775314;76;26837;-73
2022/04/02 08:43:24;;;;;;;1.57;1.47;;;;;;;;;;773792;76;26415;-74
2022/04/02 08:44:45;;;;;;;2.13;1.40;;;;;;;;;;745005;79;26471;-72
2022/04/02 08:46:05;;;;;;;1.60;1.50;;;;;;;;;;744631;79;26465;-73
2022/04/02 08:50:39;;;;;;;1.50;1.40;;;;;;;;;;772035;77;26436;-71
2022/04/02 08:51:45;;;;;;;4.53;1.47;;;;;;;;;;771624;77;26439;-74
2022/04/02 08:52:53;;;;;;;1.20;1.20;;;;;;;;;;771318;75;26615;-72
2022/04/02 08:54:00;;;;;;;2.40;1.33;;;;;;;;;;771870;77;26989;-72
2022/04/02 08:55:10;;;;;;;2.33;1.30;;;;;;;;;;771994;77;26376;-72
2022/04/02 08:56:25;;;;;;;;;;;;;;;;;;;;;
2022/04/02 08:59:12;;;;;;;1.60;1.50;;;;;;;;;;745498;79;26516;-71
2022/04/02 09:00:16;;;;;;;1.63;1.53;;;;;;;;;;743092;79;26797;-74
2022/04/02 09:01:27;;;;;;;1.53;1.43;;;;;;;;;;736682;80;26556;-71
2022/04/02 09:02:48;;;;;;;3.53;2.13;;;;;;;;;;758461;78;26891;-71
2022/04/02 09:04:09;;;;;;;9.03;6.60;;;;;;;;;;770015;77;26313;-72
2022/04/02 09:05:14;;;;;;;2.30;2.10;;;;;;;;;;787794;75;26549;-71
2022/04/02 09:06:33;;;;;;;1.73;1.60;;;;;;;;;;787721;75;26844;-71
2022/04/02 09:09:18;;;;;;;1.60;1.50;;;;;;;;;;791469;75;26319;-71
2022/04/02 09:10:28;;;;;;;1.57;1.27;;;;;;;;;;752868;78;26571;-71
2022/04/02 09:11:53;;;;;;;1.63;1.53;;;;;;;;;;750175;77;26280;-71
2022/04/02 09:13:05;;;;;;;2.20;1.37;;;;;;;;;;787919;74;26396;-71
2022/04/02 09:14:16;;;;;;;2.97;1.53;;;;;;;;;;796872;74;26489;-72
2022/04/02 09:15:20;;;;;;;1.90;1.43;;;;;;;;;;798258;74;26281;-71
2022/04/02 09:20:14;;;;;;;1.83;1.70;;;;;;;;;;755025;78;26369;-72
2022/04/02 09:21:26;;;;;;;3.27;1.50;;;;;;;;;;758329;78;26552;-72
2022/04/02 09:22:35;;;;;;;2.47;1.90;;;;;;;;;;771737;77;26471;-73
2022/04/02 09:23:48;;;;;;;2.40;1.60;;;;;;;;;;770497;77;26882;-71
2022/04/02 09:25:00;;;;;;;2.07;1.60;;;;;;;;;;770478;77;26431;-71
2022/04/02 09:29:45;;;;;;;3.53;1.60;;;;;;;;;;764564;77;26454;-71
2022/04/02 09:30:59;;;;;;;1.57;1.47;;;;;;;;;;762549;77;26963;-71
2022/04/02 09:32:22;;;;;;;1.73;1.40;;;;;;;;;;775594;76;27025;-71
2022/04/02 09:33:43;;;;;;;1.67;1.50;;;;;;;;;;759537;78;26326;-71
2022/04/02 09:35:03;;;;;;;1.83;1.73;;;;;;;;;;777559;76;26442;-71
2022/04/02 09:39:41;;;;;;;1.80;1.70;;;;;;;;;;744474;79;26596;-72
2022/04/02 09:40:48;;;;;;;2.00;1.80;;;;;;;;;;756899;78;26945;-71
2022/04/02 09:41:54;;;;;;;1.60;1.50;;;;;;;;;;753714;77;26439;-71
2022/04/02 09:42:58;;;;;;;1.63;1.53;;;;;;;;;;753195;79;26504;-72
2022/04/02 09:44:19;;;;;;;2.00;1.80;;;;;;;;;;753574;79;26627;-71
2022/04/02 09:45:25;;;;;;;3.47;1.40;;;;;;;;;;753606;79;26451;-70
2022/04/02 09:49:59;;;;;;;1.60;1.50;;;;;;;;;;766448;77;26451;-71
2022/04/02 09:51:05;;;;;;;2.33;2.00;;;;;;;;;;764862;77;26505;-74
2022/04/02 09:52:09;;;;;;;2.80;2.60;;;;;;;;;;766518;77;26495;-71
2022/04/02 09:53:16;;;;;;;2.00;1.80;;;;;;;;;;766938;77;26561;-72
2022/04/02 09:54:22;;;;;;;2.20;2.10;;;;;;;;;;766691;77;26489;-72